Time,TemperatureF,DewpointF,PressureIn,WindDirection,WindDirectionDegrees,WindSpeedMPH,WindSpeedGustMPH,Humidity,HourlyPrecipIn,Conditions,Clouds,dailyrainin,SoftwareType,DateUTC
2013-03-29 00:02:00,40.5,28.1,29.83,West,270,0.0,0.0,61,0.00,,,0.00,LWC V2.10 B1813,2013-03-29 06:02:00,
2013-03-29 00:07:00,40.8,28.4,29.83,West,270,0.0,0.0,61,0.00,,,0.00,LWC V2.10 B1813,2013-03-29 06:07:00,
2013-03-29 00:12:00,41.2,28.8,29.83,West,270,0.0,0.0,61,0.00,,,0.00,LWC V2.10 B1813,2013-03-29 06:12:00,
2013-03-29 00:17:00,41.5,29.1,29.83,West,270,0.0,0.0,61,0.00,,,0.00,LWC V2.10 B1813,2013-03-29 06:17:00,
2013-03-29 00:22:00,41.7,28.9,29.82,West,270,0.0,0.0,60,0.00,,,0.00,LWC V2.10 B1813,2013-03-29 06:22:00,
2013-03-29 00:27:00,41.7,28.9,29.83,WSW,247,0.0,0.0,60,0.00,,,0.00,LWC V2.10 B1813,2013-03-29 06:27:00,
2013-03-29 00:32:00,41.5,28.7,29.83,West,270,0.0,0.0,60,0.00,,,0.00,LWC V2.10 B1813,2013-03-29 06:32:00,
2013-03-29 00:37:00,41.5,28.7,29.83,West,270,0.0,0.0,60,0.00,,,0.00,LWC V2.10 B1813,2013-03-29 06:37:00,
2013-03-29 00:42:00,41.4,28.5,29.83,West,270,0.0,0.0,60,0.00,,,0.00,LWC V2.10 B1813,2013-03-29 06:42:00,
2013-03-29 00:47:00,41.4,28.5,29.83,WSW,247,0.0,0.0,60,0.00,,,0.00,LWC V2.10 B1813,2013-03-29 06:47:00,
2013-03-29 00:52:00,41.2,28.4,29.82,West,270,0.0,0.0,60,0.00,,,0.00,LWC V2.10 B1813,2013-03-29 06:52:00,
2013-03-29 00:57:00,41.0,28.2,29.82,West,270,0.0,0.0,60,0.00,,,0.00,LWC V2.10 B1813,2013-03-29 06:57:00,
2013-03-29 01:02:00,41.0,28.2,29.82,West,270,0.0,0.0,60,0.00,,,0.00,LWC V2.10 B1813,2013-03-29 07:02:00,
2013-03-29 01:07:00,41.4,28.5,29.83,WSW,247,0.0,0.0,60,0.00,,,0.00,LWC V2.10 B1813,2013-03-29 07:07:00,
2013-03-29 01:12:00,41.5,28.7,29.83,WSW,247,0.0,0.0,60,0.00,,,0.00,LWC V2.10 B1813,2013-03-29 07:12:00,
2013-03-29 01:17:00,42.3,28.9,29.83,West,270,0.0,0.0,59,0.00,,,0.00,LWC V2.10 B1813,2013-03-29 07:17:00,
2013-03-29 01:22:00,42.6,28.8,29.82,WSW,247,0.0,0.0,58,0.00,,,0.00,LWC V2.10 B1813,2013-03-29 07:22:00,
2013-03-29 01:27:00,43.0,29.1,29.82,West,270,0.0,0.0,58,0.00,,,0.00,LWC V2.10 B1813,2013-03-29 07:27:00,
2013-03-29 01:32:00,43.0,29.1,29.82,WSW,247,0.0,0.0,58,0.00,,,0.00,LWC V2.10 B1813,2013-03-29 07:32:00,
2013-03-29 01:37:00,42.6,28.8,29.82,WSW,247,0.0,0.0,58,0.00,,,0.00,LWC V2.10 B1813,2013-03-29 07:37:00,
2013-03-29 01:42:00,42.4,28.6,29.82,WSW,247,0.0,0.0,58,0.00,,,0.00,LWC V2.10 B1813,2013-03-29 07:42:00,
2013-03-29 01:47:00,41.9,28.1,29.82,West,270,0.0,0.0,58,0.00,,,0.00,LWC V2.10 B1813,2013-03-29 07:47:00,
2013-03-29 01:52:00,42.1,28.3,29.82,WSW,247,0.0,0.0,58,0.00,,,0.00,LWC V2.10 B1813,2013-03-29 07:52:00,
2013-03-29 01:57:00,42.6,28.8,29.82,WSW,247,0.0,0.0,58,0.00,,,0.00,LWC V2.10 B1813,2013-03-29 07:57:00,
2013-03-29 02:02:00,42.4,28.6,29.81,West,270,0.0,0.0,58,0.00,,,0.00,LWC V2.10 B1813,2013-03-29 08:02:00,
2013-03-29 02:07:00,42.4,28.6,29.82,North,0,0.0,0.0,58,0.00,,,0.00,LWC V2.10 B1813,2013-03-29 08:07:00,
2013-03-29 02:12:00,42.4,28.2,29.82,West,270,0.0,0.0,57,0.00,,,0.00,LWC V2.10 B1813,2013-03-29 08:12:00,
2013-03-29 02:17:00,42.3,28.2,29.82,West,270,0.0,0.0,57,0.00,,,0.00,LWC V2.10 B1813,2013-03-29 08:17:00,
2013-03-29 02:22:00,42.1,27.9,29.81,West,270,0.0,0.0,57,0.00,,,0.00,LWC V2.10 B1813,2013-03-29 08:22:00,
2013-03-29 02:27:00,42.1,28.3,29.82,WSW,247,0.0,0.0,58,0.00,,,0.00,LWC V2.10 B1813,2013-03-29 08:27:00,
2013-03-29 02:32:00,42.6,28.4,29.81,West,270,0.0,0.0,57,0.00,,,0.00,LWC V2.10 B1813,2013-03-29 08:32:00,
2013-03-29 02:37:00,43.0,28.3,29.82,West,270,0.0,3.4,56,0.00,,,0.00,LWC V2.10 B1813,2013-03-29 08:37:00,
2013-03-29 02:42:00,43.2,28.5,29.81,NW,315,0.0,0.0,56,0.00,,,0.00,LWC V2.10 B1813,2013-03-29 08:42:00,
2013-03-29 02:47:00,43.5,28.6,29.81,West,270,0.0,0.0,56,0.00,,,0.00,LWC V2.10 B1813,2013-03-29 08:47:00,
2013-03-29 02:52:00,43.7,28.5,29.81,WSW,247,0.0,0.0,55,0.00,,,0.00,LWC V2.10 B1813,2013-03-29 08:52:00,
2013-03-29 02:57:00,43.9,28.7,29.81,WSW,247,0.0,0.0,55,0.00,,,0.00,LWC V2.10 B1813,2013-03-29 08:57:00,
2013-03-29 03:02:00,43.9,28.7,29.81,WSW,247,0.0,0.0,55,0.00,,,0.00,LWC V2.10 B1813,2013-03-29 09:02:00,
2013-03-29 03:07:00,43.7,28.1,29.81,WSW,247,0.0,0.0,54,0.00,,,0.00,LWC V2.10 B1813,2013-03-29 09:07:00,
2013-03-29 03:12:00,43.5,28.4,29.81,WSW,247,0.0,0.0,55,0.00,,,0.00,LWC V2.10 B1813,2013-03-29 09:12:00,
2013-03-29 03:17:00,43.0,27.8,29.81,West,270,0.0,0.0,55,0.00,,,0.00,LWC V2.10 B1813,2013-03-29 09:17:00,
2013-03-29 03:22:00,42.3,27.6,29.81,West,270,0.0,0.0,56,0.00,,,0.00,LWC V2.10 B1813,2013-03-29 09:22:00,
2013-03-29 03:27:00,41.9,27.7,29.81,WSW,247,0.0,0.0,57,0.00,,,0.00,LWC V2.10 B1813,2013-03-29 09:27:00,
2013-03-29 03:32:00,41.9,27.7,29.81,WSW,247,0.0,0.0,57,0.00,,,0.00,LWC V2.10 B1813,2013-03-29 09:32:00,
2013-03-29 03:37:00,42.6,27.9,29.81,West,270,0.0,0.0,56,0.00,,,0.00,LWC V2.10 B1813,2013-03-29 09:37:00,
2013-03-29 03:42:00,43.0,28.3,29.81,West,270,0.0,0.0,56,0.00,,,0.00,LWC V2.10 B1813,2013-03-29 09:42:00,
2013-03-29 03:47:00,42.4,28.2,29.81,West,270,0.0,0.0,57,0.00,,,0.00,LWC V2.10 B1813,2013-03-29 09:47:00,
2013-03-29 03:52:00,41.9,27.7,29.81,West,270,0.0,0.0,57,0.00,,,0.00,LWC V2.10 B1813,2013-03-29 09:52:00,
2013-03-29 03:57:00,41.4,27.6,29.80,West,270,0.0,0.0,58,0.00,,,0.00,LWC V2.10 B1813,2013-03-29 09:57:00,
2013-03-29 04:02:00,41.0,27.3,29.81,SW,225,0.0,0.0,58,0.00,,,0.00,LWC V2.10 B1813,2013-03-29 10:02:00,
2013-03-29 04:07:00,40.8,27.6,29.80,SW,225,0.0,0.0,59,0.00,,,0.00,LWC V2.10 B1813,2013-03-29 10:07:00,
2013-03-29 04:12:00,40.8,27.6,29.80,SW,225,0.0,0.0,59,0.00,,,0.00,LWC V2.10 B1813,2013-03-29 10:12:00,
2013-03-29 04:17:00,40.5,27.4,29.81,SW,225,0.0,0.0,59,0.00,,,0.00,LWC V2.10 B1813,2013-03-29 10:17:00,
2013-03-29 04:22:00,39.9,27.1,29.81,SW,225,0.0,0.0,60,0.00,,,0.00,LWC V2.10 B1813,2013-03-29 10:22:00,
2013-03-29 04:27:00,39.6,26.8,29.81,SW,225,0.0,0.0,60,0.00,,,0.00,LWC V2.10 B1813,2013-03-29 10:27:00,
2013-03-29 04:32:00,39.2,26.8,29.80,SW,225,0.0,0.0,61,0.00,,,0.00,LWC V2.10 B1813,2013-03-29 10:32:00,
2013-03-29 04:37:00,39.0,27.0,29.80,SW,225,0.0,0.0,62,0.00,,,0.00,LWC V2.10 B1813,2013-03-29 10:37:00,
2013-03-29 04:42:00,39.0,27.0,29.80,SW,225,0.0,0.0,62,0.00,,,0.00,LWC V2.10 B1813,2013-03-29 10:42:00,
2013-03-29 04:47:00,39.0,27.4,29.80,NW,315,0.0,0.0,63,0.00,,,0.00,LWC V2.10 B1813,2013-03-29 10:47:00,
2013-03-29 04:52:00,39.6,27.5,29.81,WNW,292,0.0,0.0,62,0.00,,,0.00,LWC V2.10 B1813,2013-03-29 10:52:00,
2013-03-29 04:57:00,40.1,27.7,29.81,West,270,0.0,0.0,61,0.00,,,0.00,LWC V2.10 B1813,2013-03-29 10:57:00,
2013-03-29 05:02:00,40.3,27.9,29.81,West,270,0.0,0.0,61,0.00,,,0.00,LWC V2.10 B1813,2013-03-29 11:02:00,
2013-03-29 05:07:00,39.9,27.5,29.80,West,270,0.0,0.0,61,0.00,,,0.00,LWC V2.10 B1813,2013-03-29 11:07:00,
2013-03-29 05:12:00,39.7,27.7,29.80,West,270,0.0,0.0,62,0.00,,,0.00,LWC V2.10 B1813,2013-03-29 11:12:00,
2013-03-29 05:17:00,39.9,27.9,29.81,WSW,247,0.0,0.0,62,0.00,,,0.00,LWC V2.10 B1813,2013-03-29 11:17:00,
2013-03-29 05:22:00,39.7,27.7,29.81,SSW,202,0.0,0.0,62,0.00,,,0.00,LWC V2.10 B1813,2013-03-29 11:22:00,
2013-03-29 05:27:00,39.7,27.7,29.81,SSW,202,0.0,0.0,62,0.00,,,0.00,LWC V2.10 B1813,2013-03-29 11:27:00,
2013-03-29 05:32:00,39.4,27.4,29.81,SSW,202,0.0,0.0,62,0.00,,,0.00,LWC V2.10 B1813,2013-03-29 11:32:00,
2013-03-29 05:37:00,39.2,27.6,29.81,SSW,202,0.0,0.0,63,0.00,,,0.00,LWC V2.10 B1813,2013-03-29 11:37:00,
2013-03-29 05:42:00,39.4,27.7,29.81,SSW,202,0.0,0.0,63,0.00,,,0.00,LWC V2.10 B1813,2013-03-29 11:42:00,
2013-03-29 05:47:00,39.6,27.9,29.81,SW,225,0.0,0.0,63,0.00,,,0.00,LWC V2.10 B1813,2013-03-29 11:47:00,
2013-03-29 05:52:00,39.7,27.7,29.81,West,270,0.0,0.0,62,0.00,,,0.00,LWC V2.10 B1813,2013-03-29 11:52:00,
2013-03-29 05:57:00,39.7,27.7,29.81,WSW,247,0.0,0.0,62,0.00,,,0.00,LWC V2.10 B1813,2013-03-29 11:57:00,
2013-03-29 06:02:00,39.4,27.4,29.81,WSW,247,0.0,0.0,62,0.00,,,0.00,LWC V2.10 B1813,2013-03-29 12:02:00,
2013-03-29 06:07:00,39.4,27.4,29.82,WSW,247,0.0,0.0,62,0.00,,,0.00,LWC V2.10 B1813,2013-03-29 12:07:00,
2013-03-29 06:12:00,39.2,27.6,29.81,WSW,247,0.0,0.0,63,0.00,,,0.00,LWC V2.10 B1813,2013-03-29 12:12:00,
2013-03-29 06:17:00,38.8,27.2,29.82,South,180,0.0,0.0,63,0.00,,,0.00,LWC V2.10 B1813,2013-03-29 12:17:00,
2013-03-29 06:22:00,38.8,27.2,29.82,SW,225,0.0,0.0,63,0.00,,,0.00,LWC V2.10 B1813,2013-03-29 12:22:00,
2013-03-29 06:27:00,38.8,27.2,29.82,SW,225,0.0,0.0,63,0.00,,,0.00,LWC V2.10 B1813,2013-03-29 12:27:00,
2013-03-29 06:32:00,39.0,27.4,29.81,SW,225,0.0,0.0,63,0.00,,,0.00,LWC V2.10 B1813,2013-03-29 12:32:00,
2013-03-29 06:37:00,39.4,27.7,29.82,West,270,0.0,0.0,63,0.00,,,0.00,LWC V2.10 B1813,2013-03-29 12:37:00,
2013-03-29 06:42:00,39.4,27.7,29.83,SSW,202,0.0,0.0,63,0.00,,,0.00,LWC V2.10 B1813,2013-03-29 12:42:00,
2013-03-29 06:47:00,39.4,27.7,29.82,SW,225,0.0,0.0,63,0.00,,,0.00,LWC V2.10 B1813,2013-03-29 12:47:00,
2013-03-29 06:52:00,39.4,27.7,29.82,SW,225,0.0,0.0,63,0.00,,,0.00,LWC V2.10 B1813,2013-03-29 12:52:00,
2013-03-29 06:57:00,39.0,27.4,29.82,SW,225,0.0,0.0,63,0.00,,,0.00,LWC V2.10 B1813,2013-03-29 12:57:00,
2013-03-29 07:02:00,38.8,27.6,29.82,SW,225,0.0,0.0,64,0.00,,,0.00,LWC V2.10 B1813,2013-03-29 13:02:00,
2013-03-29 07:07:00,38.8,27.6,29.82,SW,225,0.0,0.0,64,0.00,,,0.00,LWC V2.10 B1813,2013-03-29 13:07:00,
2013-03-29 07:12:00,39.0,27.8,29.82,SW,225,0.0,0.0,64,0.00,,,0.00,LWC V2.10 B1813,2013-03-29 13:12:00,
2013-03-29 07:17:00,39.0,27.8,29.82,SW,225,0.0,0.0,64,0.00,,,0.00,LWC V2.10 B1813,2013-03-29 13:17:00,
2013-03-29 07:22:00,39.0,27.8,29.82,SW,225,0.0,0.0,64,0.00,,,0.00,LWC V2.10 B1813,2013-03-29 13:22:00,
2013-03-29 07:27:00,39.4,28.1,29.82,SW,225,0.0,0.0,64,0.00,,,0.00,LWC V2.10 B1813,2013-03-29 13:27:00,
2013-03-29 07:32:00,39.4,28.1,29.82,SW,225,0.0,0.0,64,0.00,,,0.00,LWC V2.10 B1813,2013-03-29 13:32:00,
2013-03-29 07:37:00,39.4,28.1,29.82,SW,225,0.0,0.0,64,0.00,,,0.00,LWC V2.10 B1813,2013-03-29 13:37:00,
2013-03-29 07:42:00,39.9,28.7,29.82,SSW,202,0.0,0.0,64,0.00,,,0.00,LWC V2.10 B1813,2013-03-29 13:42:00,
2013-03-29 07:47:00,39.9,28.7,29.83,SSW,202,0.0,0.0,64,0.00,,,0.00,LWC V2.10 B1813,2013-03-29 13:47:00,
2013-03-29 07:52:00,39.9,28.7,29.83,SW,225,0.0,0.0,64,0.00,,,0.00,LWC V2.10 B1813,2013-03-29 13:52:00,
2013-03-29 07:57:00,40.1,28.8,29.83,South,180,0.0,0.0,64,0.00,,,0.00,LWC V2.10 B1813,2013-03-29 13:57:00,
2013-03-29 08:02:00,40.3,29.0,29.83,South,180,0.0,0.0,64,0.00,,,0.00,LWC V2.10 B1813,2013-03-29 14:02:00,
2013-03-29 08:07:00,40.6,29.0,29.83,WSW,247,0.0,0.0,63,0.00,,,0.00,LWC V2.10 B1813,2013-03-29 14:07:00,
2013-03-29 08:12:00,41.2,29.5,29.84,SSW,202,0.0,0.0,63,0.00,,,0.00,LWC V2.10 B1813,2013-03-29 14:12:00,
2013-03-29 08:17:00,41.4,29.3,29.84,SW,225,0.0,0.0,62,0.00,,,0.00,LWC V2.10 B1813,2013-03-29 14:17:00,
2013-03-29 08:22:00,41.5,29.5,29.84,SW,225,0.0,0.0,62,0.00,,,0.00,LWC V2.10 B1813,2013-03-29 14:22:00,
2013-03-29 08:27:00,42.1,30.0,29.83,SW,225,0.0,0.0,62,0.00,,,0.00,LWC V2.10 B1813,2013-03-29 14:27:00,
2013-03-29 08:32:00,42.4,30.3,29.83,SW,225,0.0,0.0,62,0.00,,,0.00,LWC V2.10 B1813,2013-03-29 14:32:00,
2013-03-29 08:37:00,42.6,30.1,29.83,WSW,247,0.0,0.0,61,0.00,,,0.00,LWC V2.10 B1813,2013-03-29 14:37:00,
2013-03-29 08:43:00,43.3,30.8,29.83,WSW,247,0.0,0.0,61,0.00,,,0.00,LWC V2.10 B1813,2013-03-29 14:43:00,
2013-03-29 08:48:00,43.5,30.6,29.83,WSW,247,0.0,0.0,60,0.00,,,0.00,LWC V2.10 B1813,2013-03-29 14:48:00,
2013-03-29 08:53:00,43.9,30.9,29.82,WSW,247,0.0,0.0,60,0.00,,,0.00,LWC V2.10 B1813,2013-03-29 14:53:00,
2013-03-29 08:58:00,44.4,31.0,29.83,NW,315,0.0,0.0,59,0.00,,,0.00,LWC V2.10 B1813,2013-03-29 14:58:00,
2013-03-29 09:03:00,45.3,31.4,29.83,NW,315,0.0,0.0,58,0.00,,,0.00,LWC V2.10 B1813,2013-03-29 15:03:00,
2013-03-29 09:08:00,45.7,31.7,29.82,NW,315,0.0,0.0,58,0.00,,,0.00,LWC V2.10 B1813,2013-03-29 15:08:00,
2013-03-29 09:13:00,46.2,31.7,29.83,NNW,337,0.0,0.0,57,0.00,,,0.00,LWC V2.10 B1813,2013-03-29 15:13:00,
2013-03-29 09:18:00,46.6,31.6,29.83,NNE,22,0.0,0.0,56,0.00,,,0.00,LWC V2.10 B1813,2013-03-29 15:18:00,
2013-03-29 09:23:00,47.1,32.1,29.84,NNE,22,0.0,0.0,56,0.00,,,0.00,LWC V2.10 B1813,2013-03-29 15:23:00,
2013-03-29 09:28:00,47.8,32.8,29.84,SE,135,0.0,0.0,56,0.00,,,0.00,LWC V2.10 B1813,2013-03-29 15:28:00,
2013-03-29 09:33:00,48.0,32.5,29.83,SE,135,0.0,0.0,55,0.00,,,0.00,LWC V2.10 B1813,2013-03-29 15:33:00,
2013-03-29 09:38:00,48.6,32.6,29.83,SE,135,0.0,0.0,54,0.00,,,0.00,LWC V2.10 B1813,2013-03-29 15:38:00,
2013-03-29 09:43:00,49.3,33.3,29.83,SE,135,0.0,0.0,54,0.00,,,0.00,LWC V2.10 B1813,2013-03-29 15:43:00,
2013-03-29 09:48:00,50.0,33.5,29.82,SE,135,0.0,0.0,53,0.00,,,0.00,LWC V2.10 B1813,2013-03-29 15:48:00,
2013-03-29 09:53:00,50.7,33.7,29.82,SE,135,0.0,0.0,52,0.00,,,0.00,LWC V2.10 B1813,2013-03-29 15:53:00,
2013-03-29 09:58:00,51.8,34.2,29.82,SE,135,0.0,0.0,51,0.00,,,0.00,LWC V2.10 B1813,2013-03-29 15:58:00,
2013-03-29 10:03:00,53.2,33.4,29.82,West,270,4.7,4.7,47,0.00,,,0.00,LWC V2.10 B1813,2013-03-29 16:03:00,
2013-03-29 10:08:00,54.5,34.0,29.82,ENE,67,1.8,1.8,46,0.00,,,0.00,LWC V2.10 B1813,2013-03-29 16:08:00,
2013-03-29 10:13:00,54.5,34.0,29.82,SSE,157,3.8,3.8,46,0.00,,,0.00,LWC V2.10 B1813,2013-03-29 16:13:00,
2013-03-29 10:18:00,55.0,33.9,29.82,ENE,67,0.0,0.0,45,0.00,,,0.00,LWC V2.10 B1813,2013-03-29 16:18:00,
2013-03-29 10:23:00,55.6,34.4,29.82,SE,135,0.0,0.0,45,0.00,,,0.00,LWC V2.10 B1813,2013-03-29 16:23:00,
2013-03-29 10:28:00,56.8,35.0,29.82,NE,45,0.0,0.0,44,0.00,,,0.00,LWC V2.10 B1813,2013-03-29 16:28:00,
2013-03-29 10:33:00,57.7,34.7,29.82,NE,45,0.0,0.0,42,0.00,,,0.00,LWC V2.10 B1813,2013-03-29 16:33:00,
2013-03-29 10:38:00,58.6,35.0,29.82,NE,45,0.0,0.0,41,0.00,,,0.00,LWC V2.10 B1813,2013-03-29 16:38:00,
2013-03-29 10:43:00,59.9,35.5,29.82,NE,45,0.0,0.0,40,0.00,,,0.00,LWC V2.10 B1813,2013-03-29 16:43:00,
2013-03-29 10:48:00,60.4,34.6,29.82,North,0,0.0,0.0,38,0.00,,,0.00,LWC V2.10 B1813,2013-03-29 16:48:00,
2013-03-29 10:53:00,61.2,35.2,29.82,NE,45,0.0,0.0,38,0.00,,,0.00,LWC V2.10 B1813,2013-03-29 16:53:00,
2013-03-29 10:58:00,62.8,35.2,29.82,West,270,0.0,0.0,36,0.00,,,0.00,LWC V2.10 B1813,2013-03-29 16:58:00,
2013-03-29 11:03:00,63.7,35.3,29.82,SW,225,0.9,0.9,35,0.00,,,0.00,LWC V2.10 B1813,2013-03-29 17:03:00,
2013-03-29 11:08:00,64.2,35.1,29.82,SW,225,4.9,5.4,34,0.00,,,0.00,LWC V2.10 B1813,2013-03-29 17:08:00,
2013-03-29 11:13:00,65.5,36.2,29.82,SSW,202,8.7,8.7,34,0.00,,,0.00,LWC V2.10 B1813,2013-03-29 17:13:00,
2013-03-29 11:18:00,65.8,35.8,29.82,SW,225,3.1,3.1,33,0.00,,,0.00,LWC V2.10 B1813,2013-03-29 17:18:00,
2013-03-29 11:23:00,66.4,35.4,29.82,South,180,4.2,4.2,32,0.00,,,0.00,LWC V2.10 B1813,2013-03-29 17:23:00,
2013-03-29 11:28:00,66.7,35.9,29.82,WNW,292,4.0,4.2,32,0.00,,,0.00,LWC V2.10 B1813,2013-03-29 17:28:00,
2013-03-29 11:33:00,67.6,35.9,29.82,SW,225,0.0,0.0,31,0.00,,,0.00,LWC V2.10 B1813,2013-03-29 17:33:00,
2013-03-29 11:38:00,67.8,35.3,29.82,WSW,247,0.0,3.1,31,0.00,,,0.00,LWC V2.10 B1813,2013-03-29 17:38:00,
2013-03-29 11:43:00,67.1,35.4,29.82,West,270,0.0,0.0,31,0.00,,,0.00,LWC V2.10 B1813,2013-03-29 17:43:00,
2013-03-29 11:48:00,66.9,35.3,29.82,WSW,247,3.8,3.8,31,0.00,,,0.00,LWC V2.10 B1813,2013-03-29 17:48:00,
2013-03-29 11:53:00,66.7,35.3,29.82,WSW,247,0.0,1.8,31,0.00,,,0.00,LWC V2.10 B1813,2013-03-29 17:53:00,
2013-03-29 11:58:00,67.1,35.4,29.81,SW,225,0.0,0.0,31,0.00,,,0.00,LWC V2.10 B1813,2013-03-29 17:58:00,
2013-03-29 12:03:00,67.3,34.8,29.82,WNW,292,0.0,0.0,30,0.00,,,0.00,LWC V2.10 B1813,2013-03-29 18:03:00,
2013-03-29 12:08:00,66.7,35.1,29.81,NE,45,0.0,0.0,31,0.00,,,0.00,LWC V2.10 B1813,2013-03-29 18:08:00,
2013-03-29 12:13:00,66.9,35.3,29.81,North,0,0.0,0.0,31,0.00,,,0.00,LWC V2.10 B1813,2013-03-29 18:13:00,
2013-03-29 12:18:00,66.4,34.1,29.81,SE,135,0.0,0.0,30,0.00,,,0.00,LWC V2.10 B1813,2013-03-29 18:18:00,
2013-03-29 12:23:00,66.4,34.8,29.81,SW,225,0.0,0.0,31,0.00,,,0.00,LWC V2.10 B1813,2013-03-29 18:23:00,
2013-03-29 12:28:00,66.6,34.3,29.81,North,0,0.0,0.0,30,0.00,,,0.00,LWC V2.10 B1813,2013-03-29 18:28:00,
2013-03-29 12:33:00,66.2,34.7,29.81,West,270,0.0,0.0,31,0.00,,,0.00,LWC V2.10 B1813,2013-03-29 18:33:00,
2013-03-29 12:38:00,65.3,33.9,29.81,West,270,0.0,0.0,31,0.00,,,0.00,LWC V2.10 B1813,2013-03-29 18:38:00,
2013-03-29 12:43:00,64.8,33.4,29.81,WSW,247,5.6,5.6,31,0.00,,,0.00,LWC V2.10 B1813,2013-03-29 18:43:00,
2013-03-29 12:48:00,64.8,33.4,29.81,WSW,247,0.0,0.0,31,0.00,,,0.00,LWC V2.10 B1813,2013-03-29 18:48:00,
2013-03-29 12:53:00,65.1,34.3,29.81,NE,45,2.9,2.9,32,0.00,,,0.00,LWC V2.10 B1813,2013-03-29 18:53:00,
2013-03-29 12:58:00,64.8,34.1,29.81,WSW,247,0.0,0.0,32,0.00,,,0.00,LWC V2.10 B1813,2013-03-29 18:58:00,
2013-03-29 13:03:00,65.7,34.9,29.80,WSW,247,4.5,4.5,32,0.00,,,0.00,LWC V2.10 B1813,2013-03-29 19:03:00,
2013-03-29 13:08:00,65.3,34.3,29.81,SSW,202,2.9,2.9,32,0.00,,,0.00,LWC V2.10 B1813,2013-03-29 19:08:00,
2013-03-29 13:13:00,64.0,33.5,29.81,WSW,247,3.8,6.3,32,0.00,,,0.00,LWC V2.10 B1813,2013-03-29 19:13:00,
2013-03-29 13:18:00,64.4,34.5,29.80,West,270,1.6,1.6,33,0.00,,,0.00,LWC V2.10 B1813,2013-03-29 19:18:00,
2013-03-29 13:23:00,65.8,35.1,29.80,SW,225,0.0,2.5,32,0.00,,,0.00,LWC V2.10 B1813,2013-03-29 19:23:00,
2013-03-29 13:28:00,66.7,35.1,29.79,WSW,247,5.6,5.6,31,0.00,,,0.00,LWC V2.10 B1813,2013-03-29 19:28:00,
2013-03-29 13:33:00,67.1,35.4,29.79,WSW,247,0.0,0.0,31,0.00,,,0.00,LWC V2.10 B1813,2013-03-29 19:33:00,
2013-03-29 13:38:00,66.7,35.1,29.78,SW,225,1.8,1.8,31,0.00,,,0.00,LWC V2.10 B1813,2013-03-29 19:38:00,
2013-03-29 13:43:00,66.2,34.7,29.79,West,270,0.0,0.0,31,0.00,,,0.00,LWC V2.10 B1813,2013-03-29 19:43:00,
2013-03-29 13:48:00,65.8,33.7,29.79,NW,315,0.0,0.0,30,0.00,,,0.00,LWC V2.10 B1813,2013-03-29 19:48:00,
2013-03-29 13:53:00,64.8,33.4,29.79,WNW,292,5.8,6.5,31,0.00,,,0.00,LWC V2.10 B1813,2013-03-29 19:53:00,
2013-03-29 13:58:00,64.0,33.5,29.79,WSW,247,8.7,8.7,32,0.00,,,0.00,LWC V2.10 B1813,2013-03-29 19:58:00,
2013-03-29 14:03:00,63.7,33.2,29.79,NW,315,0.0,0.0,32,0.00,,,0.00,LWC V2.10 B1813,2013-03-29 20:03:00,
2013-03-29 14:08:00,64.8,34.8,29.79,WSW,247,8.3,8.3,32,0.00,,,0.00,LWC V2.10 B1813,2013-03-29 20:08:00,
2013-03-29 14:13:00,66.4,35.6,29.79,South,180,0.0,0.0,32,0.00,,,0.00,LWC V2.10 B1813,2013-03-29 20:13:00,
2013-03-29 14:18:00,66.7,35.9,29.79,SW,225,3.8,3.8,32,0.00,,,0.00,LWC V2.10 B1813,2013-03-29 20:18:00,
2013-03-29 14:23:00,65.3,34.6,29.79,WSW,247,6.5,6.5,32,0.00,,,0.00,LWC V2.10 B1813,2013-03-29 20:23:00,
2013-03-29 14:28:00,64.6,34.7,29.79,West,270,0.0,0.0,33,0.00,,,0.00,LWC V2.10 B1813,2013-03-29 20:28:00,
2013-03-29 14:33:00,63.7,34.6,29.78,SW,225,11.2,11.2,34,0.00,,,0.00,LWC V2.10 B1813,2013-03-29 20:33:00,
2013-03-29 14:38:00,62.4,34.2,29.78,WSW,247,2.5,6.9,35,0.00,,,0.00,LWC V2.10 B1813,2013-03-29 20:38:00,
2013-03-29 14:43:00,62.2,34.0,29.78,WSW,247,2.2,2.2,35,0.00,,,0.00,LWC V2.10 B1813,2013-03-29 20:43:00,
2013-03-29 14:48:00,62.1,33.9,29.78,West,270,1.8,1.8,35,0.00,,,0.00,LWC V2.10 B1813,2013-03-29 20:48:00,
2013-03-29 14:53:00,61.5,33.4,29.77,WSW,247,6.5,6.5,35,0.00,,,0.00,LWC V2.10 B1813,2013-03-29 20:53:00,
2013-03-29 14:58:00,61.3,33.9,29.77,West,270,4.9,4.9,36,0.00,,,0.00,LWC V2.10 B1813,2013-03-29 20:58:00,
2013-03-29 15:03:00,61.0,33.6,29.77,West,270,0.0,0.0,36,0.00,,,0.00,LWC V2.10 B1813,2013-03-29 21:03:00,
2013-03-29 15:08:00,61.0,33.6,29.77,WSW,247,4.2,4.2,36,0.00,,,0.00,LWC V2.10 B1813,2013-03-29 21:08:00,
2013-03-29 15:13:00,60.6,33.3,29.77,WSW,247,0.0,0.0,36,0.00,,,0.00,LWC V2.10 B1813,2013-03-29 21:13:00,
2013-03-29 15:18:00,60.6,33.3,29.77,WSW,247,0.0,5.1,36,0.00,,,0.00,LWC V2.10 B1813,2013-03-29 21:18:00,
2013-03-29 15:23:00,60.8,33.4,29.77,WSW,247,6.0,6.0,36,0.00,,,0.00,LWC V2.10 B1813,2013-03-29 21:23:00,
2013-03-29 15:28:00,60.1,33.5,29.77,South,180,6.3,6.3,37,0.00,,,0.00,LWC V2.10 B1813,2013-03-29 21:28:00,
2013-03-29 15:33:00,59.5,33.1,29.77,WSW,247,0.0,0.0,37,0.00,,,0.00,LWC V2.10 B1813,2013-03-29 21:33:00,
2013-03-29 15:38:00,58.8,33.1,29.77,West,270,7.6,7.6,38,0.00,,,0.00,LWC V2.10 B1813,2013-03-29 21:38:00,
2013-03-29 15:43:00,58.8,33.1,29.78,WSW,247,3.1,3.1,38,0.00,,,0.00,LWC V2.10 B1813,2013-03-29 21:43:00,
2013-03-29 15:48:00,58.8,33.1,29.78,West,270,3.1,3.1,38,0.00,,,0.00,LWC V2.10 B1813,2013-03-29 21:48:00,
2013-03-29 15:53:00,58.8,33.8,29.77,WSW,247,0.0,2.0,39,0.00,,,0.00,LWC V2.10 B1813,2013-03-29 21:53:00,
2013-03-29 15:58:00,58.8,33.8,29.77,WSW,247,3.6,3.6,39,0.00,,,0.00,LWC V2.10 B1813,2013-03-29 21:58:00,
2013-03-29 16:03:00,60.4,34.6,29.77,NNW,337,6.0,6.0,38,0.00,,,0.00,LWC V2.10 B1813,2013-03-29 22:03:00,
2013-03-29 16:08:00,60.4,33.8,29.77,WSW,247,0.2,6.7,37,0.00,,,0.00,LWC V2.10 B1813,2013-03-29 22:08:00,
2013-03-29 16:13:00,60.1,33.5,29.77,WSW,247,3.8,3.8,37,0.00,,,0.00,LWC V2.10 B1813,2013-03-29 22:13:00,
2013-03-29 16:19:00,59.7,33.9,29.76,SSW,202,0.0,6.7,38,0.00,,,0.00,LWC V2.10 B1813,2013-03-29 22:19:00,
2013-03-29 16:24:00,60.1,33.5,29.76,SSW,202,0.0,0.0,37,0.00,,,0.00,LWC V2.10 B1813,2013-03-29 22:24:00,
2013-03-29 16:29:00,60.1,33.5,29.77,West,270,6.7,6.7,37,0.00,,,0.00,LWC V2.10 B1813,2013-03-29 22:29:00,
2013-03-29 16:34:00,60.1,33.5,29.76,SSW,202,4.7,11.0,37,0.00,,,0.00,LWC V2.10 B1813,2013-03-29 22:34:00,
2013-03-29 16:39:00,59.9,33.4,29.76,WSW,247,3.6,3.6,37,0.00,,,0.00,LWC V2.10 B1813,2013-03-29 22:39:00,
2013-03-29 16:44:00,60.1,33.5,29.76,WSW,247,7.6,7.6,37,0.00,,,0.00,LWC V2.10 B1813,2013-03-29 22:44:00,
2013-03-29 16:49:00,62.4,34.9,29.76,WSW,247,0.0,0.0,36,0.00,,,0.00,LWC V2.10 B1813,2013-03-29 22:49:00,
2013-03-29 16:54:00,63.3,35.0,29.76,West,270,0.0,4.5,35,0.00,,,0.00,LWC V2.10 B1813,2013-03-29 22:54:00,
2013-03-29 16:59:00,63.3,34.3,29.76,SW,225,6.5,6.5,34,0.00,,,0.00,LWC V2.10 B1813,2013-03-29 22:59:00,
2013-03-29 17:04:00,62.8,33.8,29.77,WNW,292,4.7,4.7,34,0.00,,,0.00,LWC V2.10 B1813,2013-03-29 23:04:00,
2013-03-29 17:09:00,62.8,33.8,29.77,SW,225,0.0,0.0,34,0.00,,,0.00,LWC V2.10 B1813,2013-03-29 23:09:00,
2013-03-29 17:14:00,62.6,32.9,29.77,WNW,292,6.3,6.3,33,0.00,,,0.00,LWC V2.10 B1813,2013-03-29 23:14:00,
2013-03-29 17:19:00,63.3,33.5,29.76,WSW,247,4.0,4.0,33,0.00,,,0.00,LWC V2.10 B1813,2013-03-29 23:19:00,
2013-03-29 17:24:00,64.2,34.4,29.76,WSW,247,5.6,5.6,33,0.00,,,0.00,LWC V2.10 B1813,2013-03-29 23:24:00,
2013-03-29 17:29:00,64.9,34.3,29.76,WSW,247,6.0,6.0,32,0.00,,,0.00,LWC V2.10 B1813,2013-03-29 23:29:00,
2013-03-29 17:34:00,65.1,34.4,29.76,WSW,247,2.9,7.2,32,0.00,,,0.00,LWC V2.10 B1813,2013-03-29 23:34:00,
2013-03-29 17:39:00,65.5,34.8,29.76,WSW,247,9.2,9.2,32,0.00,,,0.00,LWC V2.10 B1813,2013-03-29 23:39:00,
2013-03-29 17:44:00,65.8,35.1,29.76,WSW,247,0.0,0.0,32,0.00,,,0.00,LWC V2.10 B1813,2013-03-29 23:44:00,
2013-03-29 17:49:00,65.5,34.1,29.76,WSW,247,2.9,6.3,31,0.00,,,0.00,LWC V2.10 B1813,2013-03-29 23:49:00,
2013-03-29 17:54:00,65.5,34.1,29.76,WSW,247,3.6,3.6,31,0.00,,,0.00,LWC V2.10 B1813,2013-03-29 23:54:00,
2013-03-29 17:59:00,64.9,33.6,29.78,WSW,247,2.9,2.9,31,0.00,,,0.00,LWC V2.10 B1813,2013-03-29 23:59:00,
2013-03-29 18:04:00,65.1,33.7,29.78,WSW,247,0.0,0.0,31,0.00,,,0.00,LWC V2.10 B1813,2013-03-30 00:04:00,
2013-03-29 18:09:00,65.1,33.7,29.79,WSW,247,0.0,0.0,31,0.00,,,0.00,LWC V2.10 B1813,2013-03-30 00:09:00,
2013-03-29 18:14:00,64.9,33.6,29.79,WSW,247,4.5,4.5,31,0.00,,,0.00,LWC V2.10 B1813,2013-03-30 00:14:00,
2013-03-29 18:19:00,64.2,33.6,29.78,WSW,247,5.4,5.4,32,0.00,,,0.00,LWC V2.10 B1813,2013-03-30 00:19:00,
2013-03-29 18:24:00,63.1,32.7,29.79,WSW,247,0.0,0.0,32,0.00,,,0.00,LWC V2.10 B1813,2013-03-30 00:24:00,
2013-03-29 18:29:00,62.2,32.6,29.79,WNW,292,5.4,5.4,33,0.00,,,0.00,LWC V2.10 B1813,2013-03-30 00:29:00,
2013-03-29 18:34:00,61.0,32.2,29.79,SW,225,0.0,11.0,34,0.00,,,0.00,LWC V2.10 B1813,2013-03-30 00:34:00,
2013-03-29 18:39:00,60.1,32.1,29.79,SW,225,2.5,2.5,35,0.00,,,0.00,LWC V2.10 B1813,2013-03-30 00:39:00,
2013-03-29 18:44:00,59.5,31.9,29.79,SW,225,2.2,2.2,35,0.00,,,0.00,LWC V2.10 B1813,2013-03-30 00:44:00,
2013-03-29 18:49:00,58.8,32.4,29.78,SW,225,7.4,7.4,37,0.00,,,0.00,LWC V2.10 B1813,2013-03-30 00:49:00,
2013-03-29 18:54:00,58.1,31.8,29.79,SW,225,0.0,0.0,37,0.00,,,0.00,LWC V2.10 B1813,2013-03-30 00:54:00,
2013-03-29 18:59:00,57.6,31.3,29.79,West,270,0.0,1.8,38,0.00,,,0.00,LWC V2.10 B1813,2013-03-30 00:59:00,
2013-03-29 19:04:00,57.0,31.5,29.79,West,270,0.0,0.0,38,0.00,,,0.00,LWC V2.10 B1813,2013-03-30 01:04:00,
2013-03-29 19:09:00,56.5,31.7,29.79,West,270,0.0,0.0,39,0.00,,,0.00,LWC V2.10 B1813,2013-03-30 01:09:00,
2013-03-29 19:14:00,56.1,31.4,29.79,SW,225,0.0,0.0,39,0.00,,,0.00,LWC V2.10 B1813,2013-03-30 01:14:00,
2013-03-29 19:19:00,55.4,31.5,29.79,SW,225,0.0,0.0,40,0.00,,,0.00,LWC V2.10 B1813,2013-03-30 01:19:00,
2013-03-29 19:24:00,54.7,31.4,29.79,SW,225,0.0,0.0,41,0.00,,,0.00,LWC V2.10 B1813,2013-03-30 01:24:00,
2013-03-29 19:29:00,54.1,30.9,29.79,SW,225,0.0,0.0,42,0.00,,,0.00,LWC V2.10 B1813,2013-03-30 01:29:00,
2013-03-29 19:34:00,53.2,30.6,29.79,SW,225,0.0,0.0,42,0.00,,,0.00,LWC V2.10 B1813,2013-03-30 01:34:00,
2013-03-29 19:39:00,52.5,30.5,29.79,SW,225,0.0,0.0,43,0.00,,,0.00,LWC V2.10 B1813,2013-03-30 01:39:00,
2013-03-29 19:44:00,52.0,30.6,29.79,SW,225,0.0,0.0,44,0.00,,,0.00,LWC V2.10 B1813,2013-03-30 01:44:00,
2013-03-29 19:49:00,52.0,30.6,29.79,NW,315,0.0,0.0,44,0.00,,,0.00,LWC V2.10 B1813,2013-03-30 01:49:00,
2013-03-29 19:54:00,52.0,30.6,29.79,West,270,0.0,0.0,44,0.00,,,0.00,LWC V2.10 B1813,2013-03-30 01:54:00,
2013-03-29 19:59:00,51.6,30.3,29.80,West,270,0.0,0.0,45,0.00,,,0.00,LWC V2.10 B1813,2013-03-30 01:59:00,
2013-03-29 20:04:00,50.9,30.2,29.80,West,270,0.0,0.0,45,0.00,,,0.00,LWC V2.10 B1813,2013-03-30 02:04:00,
2013-03-29 20:09:00,50.7,30.6,29.80,WSW,247,0.0,0.0,46,0.00,,,0.00,LWC V2.10 B1813,2013-03-30 02:09:00,
2013-03-29 20:14:00,49.6,29.6,29.81,WSW,247,0.0,0.0,46,0.00,,,0.00,LWC V2.10 B1813,2013-03-30 02:14:00,
2013-03-29 20:19:00,49.1,29.6,29.81,West,270,0.0,0.0,47,0.00,,,0.00,LWC V2.10 B1813,2013-03-30 02:19:00,
2013-03-29 20:24:00,48.7,29.8,29.81,WSW,247,0.0,0.0,48,0.00,,,0.00,LWC V2.10 B1813,2013-03-30 02:24:00,
2013-03-29 20:29:00,48.0,29.3,29.81,WSW,247,0.0,0.0,48,0.00,,,0.00,LWC V2.10 B1813,2013-03-30 02:29:00,
2013-03-29 20:34:00,48.6,29.6,29.81,West,270,0.0,0.0,48,0.00,,,0.00,LWC V2.10 B1813,2013-03-30 02:34:00,
2013-03-29 20:39:00,48.2,29.3,29.82,SSW,202,0.0,0.0,48,0.00,,,0.00,LWC V2.10 B1813,2013-03-30 02:39:00,
2013-03-29 20:44:00,48.0,29.1,29.82,SW,225,0.0,0.0,48,0.00,,,0.00,LWC V2.10 B1813,2013-03-30 02:44:00,
2013-03-29 20:49:00,48.4,29.5,29.82,NW,315,0.0,0.0,48,0.00,,,0.00,LWC V2.10 B1813,2013-03-30 02:49:00,
2013-03-29 20:54:00,48.7,30.4,29.82,NW,315,0.0,0.0,49,0.00,,,0.00,LWC V2.10 B1813,2013-03-30 02:54:00,
2013-03-29 20:59:00,48.7,29.8,29.83,WSW,247,0.0,0.0,48,0.00,,,0.00,LWC V2.10 B1813,2013-03-30 02:59:00,
2013-03-29 21:04:00,48.6,29.6,29.83,WSW,247,0.0,0.0,48,0.00,,,0.00,LWC V2.10 B1813,2013-03-30 03:04:00,
2013-03-29 21:09:00,48.0,29.7,29.82,SSW,202,0.0,0.0,49,0.00,,,0.00,LWC V2.10 B1813,2013-03-30 03:09:00,
2013-03-29 21:14:00,47.5,28.7,29.83,SSW,202,0.0,0.0,48,0.00,,,0.00,LWC V2.10 B1813,2013-03-30 03:14:00,
2013-03-29 21:19:00,47.5,29.7,29.82,SSW,202,0.0,0.0,50,0.00,,,0.00,LWC V2.10 B1813,2013-03-30 03:19:00,
2013-03-29 21:24:00,47.1,28.9,29.82,SW,225,0.0,0.0,49,0.00,,,0.00,LWC V2.10 B1813,2013-03-30 03:24:00,
2013-03-29 21:29:00,46.8,28.5,29.82,SW,225,0.0,0.0,49,0.00,,,0.00,LWC V2.10 B1813,2013-03-30 03:29:00,
2013-03-29 21:34:00,46.2,28.1,29.83,SW,225,0.0,0.0,49,0.00,,,0.00,LWC V2.10 B1813,2013-03-30 03:34:00,
2013-03-29 21:39:00,46.0,28.4,29.83,SW,225,0.0,0.0,50,0.00,,,0.00,LWC V2.10 B1813,2013-03-30 03:39:00,
2013-03-29 21:44:00,45.7,28.1,29.83,WSW,247,0.0,0.0,50,0.00,,,0.00,LWC V2.10 B1813,2013-03-30 03:44:00,
2013-03-29 21:49:00,46.0,28.4,29.82,NW,315,0.0,0.0,50,0.00,,,0.00,LWC V2.10 B1813,2013-03-30 03:49:00,
2013-03-29 21:54:00,46.0,28.9,29.83,NNW,337,0.0,0.0,51,0.00,,,0.00,LWC V2.10 B1813,2013-03-30 03:54:00,
2013-03-29 21:59:00,46.0,28.4,29.83,WSW,247,0.0,0.0,50,0.00,,,0.00,LWC V2.10 B1813,2013-03-30 03:59:00,
2013-03-29 22:00:00,46.0,28.4,29.83,WSW,247,0.0,0.0,50,0.00,,,0.00,LWC V2.10 B1813,2013-03-30 04:00:00,
2013-03-29 22:01:00,46.2,28.6,29.82,SSW,202,0.0,0.0,50,0.00,,,0.00,LWC V2.10 B1813,2013-03-30 04:01:00,
2013-03-29 22:06:00,46.0,28.9,29.83,SSW,202,0.0,0.0,51,0.00,,,0.00,LWC V2.10 B1813,2013-03-30 04:06:00,
2013-03-29 22:11:00,45.1,28.1,29.83,SSW,202,0.0,0.0,51,0.00,,,0.00,LWC V2.10 B1813,2013-03-30 04:11:00,
2013-03-29 22:16:00,44.4,27.9,29.83,SSW,202,0.0,0.0,52,0.00,,,0.00,LWC V2.10 B1813,2013-03-30 04:16:00,
2013-03-29 22:21:00,44.2,27.7,29.84,SSW,202,0.0,0.0,52,0.00,,,0.00,LWC V2.10 B1813,2013-03-30 04:21:00,
2013-03-29 22:26:00,43.9,27.7,29.84,SW,225,0.0,0.0,52,0.00,,,0.00,LWC V2.10 B1813,2013-03-30 04:26:00,
2013-03-29 22:31:00,43.5,27.5,29.84,WSW,247,0.0,0.0,53,0.00,,,0.00,LWC V2.10 B1813,2013-03-30 04:31:00,
2013-03-29 22:36:00,43.2,27.1,29.84,WSW,247,0.0,0.0,53,0.00,,,0.00,LWC V2.10 B1813,2013-03-30 04:36:00,
2013-03-29 22:42:00,42.4,27.1,29.84,SSW,202,0.0,0.0,54,0.00,,,0.00,LWC V2.10 B1813,2013-03-30 04:42:00,
2013-03-29 22:47:00,42.1,26.5,29.84,SSW,202,0.0,0.0,54,0.00,,,0.00,LWC V2.10 B1813,2013-03-30 04:47:00,
2013-03-29 22:52:00,42.3,26.7,29.83,SSW,202,0.0,0.0,54,0.00,,,0.00,LWC V2.10 B1813,2013-03-30 04:52:00,
2013-03-29 22:57:00,42.4,26.9,29.83,SW,225,0.0,0.0,54,0.00,,,0.00,LWC V2.10 B1813,2013-03-30 04:57:00,
2013-03-29 23:02:00,42.6,27.1,29.83,SW,225,0.0,0.0,54,0.00,,,0.00,LWC V2.10 B1813,2013-03-30 05:02:00,
2013-03-29 23:07:00,42.6,27.1,29.83,SW,225,0.0,0.0,54,0.00,,,0.00,LWC V2.10 B1813,2013-03-30 05:07:00,
2013-03-29 23:12:00,42.4,26.7,29.83,SW,225,0.0,0.0,54,0.00,,,0.00,LWC V2.10 B1813,2013-03-30 05:12:00,
2013-03-29 23:17:00,42.1,26.5,29.83,SW,225,0.0,0.0,54,0.00,,,0.00,LWC V2.10 B1813,2013-03-30 05:17:00,
2013-03-29 23:22:00,42.1,27.0,29.83,WSW,247,0.0,0.0,55,0.00,,,0.00,LWC V2.10 B1813,2013-03-30 05:22:00,
2013-03-29 23:27:00,42.1,27.0,29.84,WSW,247,0.0,0.0,55,0.00,,,0.00,LWC V2.10 B1813,2013-03-30 05:27:00,
2013-03-29 23:32:00,42.1,27.0,29.83,WSW,247,0.0,0.0,55,0.00,,,0.00,LWC V2.10 B1813,2013-03-30 05:32:00,
2013-03-29 23:37:00,42.1,27.0,29.82,SW,225,0.0,0.0,55,0.00,,,0.00,LWC V2.10 B1813,2013-03-30 05:37:00,
2013-03-29 23:42:00,42.4,27.3,29.83,West,270,0.0,0.0,55,0.00,,,0.00,LWC V2.10 B1813,2013-03-30 05:42:00,
2013-03-29 23:47:00,42.1,27.0,29.83,West,270,0.0,0.0,55,0.00,,,0.00,LWC V2.10 B1813,2013-03-30 05:47:00,
2013-03-29 23:52:00,42.1,27.0,29.83,West,270,0.0,0.0,55,0.00,,,0.00,LWC V2.10 B1813,2013-03-30 05:52:00,
2013-03-29 23:57:00,41.9,26.7,29.82,WSW,247,0.0,0.0,55,0.00,,,0.00,LWC V2.10 B1813,2013-03-30 05:57:00,